Time;durP1;ratioP1;P1;durP2;ratioP2;P2;SDS_P1;SDS_P2;PMS_P1;PMS_P2;Temp;Humidity;BMP_temperature;BMP_pressure;BME280_temperature;BME280_humidity;BME280_pressure;Samples;Min_cycle;Max_cycle;Signal;HPM_P1;HPM_P2
2023/10/07 00:01:57;;;;;;;4.40;3.50;;;;;;;21.19;37.31;95994.88;6007721;28;109477;-60
2023/10/07 00:05:01;;;;;;;5.15;3.80;;;;;;;21.15;37.11;95985.03;6016426;28;109351;-60
2023/10/07 00:08:06;;;;;;;5.10;3.77;;;;;;;21.17;37.35;95983.72;6017391;28;109253;-61
2023/10/07 00:11:11;;;;;;;4.80;3.45;;;;;;;21.16;37.69;95981.31;6018277;29;108891;-60
2023/10/07 00:14:15;;;;;;;5.03;3.45;;;;;;;21.14;37.37;95983.47;6008576;28;109667;-60
2023/10/07 00:17:18;;;;;;;3.95;3.55;;;;;;;21.13;37.39;95973.88;6016746;28;109307;-61
2023/10/07 00:20:24;;;;;;;6.63;3.73;;;;;;;21.11;37.47;95974.16;6016524;28;109024;-60
2023/10/07 00:23:28;;;;;;;3.88;3.33;;;;;;;21.09;37.41;95971.00;6017983;28;108801;-60
2023/10/07 00:26:34;;;;;;;4.63;3.93;;;;;;;21.13;37.03;95966.69;6005892;28;109104;-58
2023/10/07 00:29:53;;;;;;;4.57;3.40;;;;;;;21.12;37.40;95964.31;5996661;29;108801;-56
2023/10/07 00:32:56;;;;;;;5.35;3.65;;;;;;;21.07;37.10;95956.38;6016751;28;108952;-56
2023/10/07 00:36:06;;;;;;;4.10;3.25;;;;;;;21.08;37.42;95963.28;6005510;28;108967;-59
2023/10/07 00:39:12;;;;;;;4.53;3.40;;;;;;;21.08;37.33;95960.63;6017423;29;109011;-56
2023/10/07 00:42:15;;;;;;;4.30;3.85;;;;;;;21.07;37.14;95948.38;6016974;29;108919;-57
2023/10/07 00:45:20;;;;;;;4.20;3.60;;;;;;;21.06;37.34;95949.47;6003288;29;108950;-56
2023/10/07 00:48:38;;;;;;;5.00;3.30;;;;;;;21.06;37.17;95944.94;6005699;28;108899;-56
2023/10/07 00:51:46;;;;;;;4.88;3.60;;;;;;;21.06;37.04;95944.13;6015970;28;109006;-56
2023/10/07 00:54:57;;;;;;;4.40;3.40;;;;;;;21.05;37.30;95947.88;6015667;28;108914;-57
2023/10/07 00:58:15;;;;;;;4.00;3.30;;;;;;;21.00;37.30;95931.88;6012270;28;109618;-57
2023/10/07 01:01:19;;;;;;;3.80;3.20;;;;;;;21.02;37.07;95943.06;6010387;29;109051;-57
2023/10/07 01:04:23;;;;;;;4.45;3.20;;;;;;;21.01;37.29;95936.16;6008654;29;109084;-56
2023/10/07 01:07:27;;;;;;;3.97;3.20;;;;;;;21.01;37.37;95936.16;6016877;28;109006;-56
2023/10/07 01:10:32;;;;;;;4.20;3.60;;;;;;;20.99;37.27;95936.41;6006376;28;110065;-56
2023/10/07 01:13:44;;;;;;;3.67;3.27;;;;;;;20.97;37.27;95935.09;6016359;28;109029;-56
2023/10/07 01:16:47;;;;;;;4.20;2.90;;;;;;;20.97;37.49;95935.91;6014399;28;109266;-56
2023/10/07 01:19:54;;;;;;;4.20;3.20;;;;;;;20.96;37.08;95933.53;6016007;28;108943;-56
2023/10/07 01:23:04;;;;;;;4.27;3.50;;;;;;;20.96;37.45;95933.53;6003898;28;109374;-56
2023/10/07 01:26:15;;;;;;;4.40;3.80;;;;;;;20.92;37.31;95931.41;6015546;28;109034;-56
2023/10/07 01:29:20;;;;;;;5.00;3.80;;;;;;;20.91;37.35;95940.47;6016223;28;108951;-56
2023/10/07 01:32:27;;;;;;;4.05;3.60;;;;;;;20.88;37.24;95926.94;6011714;28;108835;-57
2023/10/07 01:35:38;;;;;;;4.38;3.63;;;;;;;20.89;37.07;95934.63;6010023;28;109648;-56
2023/10/07 01:38:47;;;;;;;5.30;3.80;;;;;;;20.88;37.16;95938.38;6016325;28;108948;-56
2023/10/07 01:41:51;;;;;;;4.90;3.67;;;;;;;20.89;37.10;95939.94;6016494;28;109068;-56
2023/10/07 01:45:08;;;;;;;4.57;4.07;;;;;;;20.86;37.09;95940.50;6004797;28;110106;-56
2023/10/07 01:48:11;;;;;;;6.75;4.80;;;;;;;20.86;37.28;95937.06;6015135;28;109010;-56
2023/10/07 01:51:14;;;;;;;4.90;4.20;;;;;;;20.88;37.21;95938.38;6016145;28;109046;-56
2023/10/07 01:54:20;;;;;;;4.77;4.30;;;;;;;20.84;37.49;95937.34;6014379;28;109221;-56
2023/10/07 01:57:23;;;;;;;5.43;4.50;;;;;;;20.84;37.62;95941.88;5988038;29;109323;-56
2023/10/07 02:00:43;;;;;;;6.38;5.10;;;;;;;20.84;37.62;95937.34;6015760;28;108962;-56
2023/10/07 02:03:47;;;;;;;5.40;4.80;;;;;;;20.83;37.48;95932.25;6015189;28;108888;-56
2023/10/07 02:06:51;;;;;;;4.40;4.00;;;;;;;20.84;37.39;95928.56;6005918;28;109928;-57
2023/10/07 02:09:57;;;;;;;5.40;4.40;;;;;;;20.83;37.61;95925.06;6015782;28;108837;-57
2023/10/07 02:13:01;;;;;;;4.40;3.90;;;;;;;20.81;37.73;95927.22;6013108;29;109122;-56
2023/10/07 02:16:07;;;;;;;6.80;4.47;;;;;;;20.72;37.57;95915.59;6014327;28;109219;-56
2023/10/07 02:19:14;;;;;;;6.50;4.15;;;;;;;20.76;37.67;95921.94;6002081;28;111268;-57
2023/10/07 02:22:22;;;;;;;5.78;4.20;;;;;;;20.79;37.54;95917.94;6014721;28;109357;-56
2023/10/07 02:25:29;;;;;;;5.90;4.80;;;;;;;20.79;37.58;95917.94;6015003;28;108807;-56
2023/10/07 02:28:34;;;;;;;5.60;4.70;;;;;;;20.79;37.37;95918.72;6016375;28;109581;-56
2023/10/07 02:31:43;;;;;;;5.63;4.55;;;;;;;20.75;37.50;95917.69;6009294;28;109022;-56
2023/10/07 02:34:53;;;;;;;5.20;4.60;;;;;;;20.75;37.24;95923.00;6019155;28;109881;-56
2023/10/07 02:37:57;;;;;;;6.25;4.60;;;;;;;20.72;37.43;95920.91;6018693;28;108878;-56
2023/10/07 02:41:07;;;;;;;5.80;5.10;;;;;;;20.70;37.45;95924.91;6008547;28;108949;-57
2023/10/07 02:44:16;;;;;;;6.00;4.83;;;;;;;20.70;37.38;95922.25;6019782;29;108913;-57
2023/10/07 02:47:19;;;;;;;7.07;5.50;;;;;;;20.69;37.32;95924.13;6018397;28;109169;-56
2023/10/07 02:50:25;;;;;;;6.03;5.20;;;;;;;20.69;37.23;95918.00;6017431;28;108902;-60
2023/10/07 02:53:35;;;;;;;6.37;5.77;;;;;;;20.63;37.15;95918.00;6008408;28;109245;-59
2023/10/07 02:56:44;;;;;;;6.22;5.30;;;;;;;20.60;37.42;95909.78;6017720;28;108934;-60
2023/10/07 02:59:50;;;;;;;6.23;4.73;;;;;;;20.57;37.40;95921.78;6018219;28;108871;-60
2023/10/07 03:03:09;;;;;;;5.65;4.93;;;;;;;20.54;37.13;95913.56;6013978;28;109194;-60
2023/10/07 03:06:17;;;;;;;6.57;5.10;;;;;;;20.56;37.29;95919.41;6014191;28;109250;-60
2023/10/07 03:09:20;;;;;;;5.80;5.20;;;;;;;20.52;37.58;95921.03;6017210;28;109077;-61
2023/10/07 03:12:28;;;;;;;6.38;5.60;;;;;;;20.49;37.52;95924.19;6017991;28;108911;-60
2023/10/07 03:15:41;;;;;;;8.18;5.50;;;;;;;20.47;37.51;95927.13;6008057;28;108840;-59
2023/10/07 03:18:48;;;;;;;6.78;5.30;;;;;;;20.50;37.51;95923.97;6017342;28;108849;-60
2023/10/07 03:22:06;;;;;;;6.73;5.40;;;;;;;20.48;37.46;95920.75;6018293;28;109019;-60
2023/10/07 03:25:16;;;;;;;6.60;5.50;;;;;;;20.48;37.62;95917.28;6018440;28;109062;-62
2023/10/07 03:28:21;;;;;;;6.43;5.80;;;;;;;20.51;37.65;95927.41;6007415;28;109253;-59
2023/10/07 03:31:34;;;;;;;7.07;5.87;;;;;;;20.49;37.52;95919.69;6017831;28;109204;-61
2023/10/07 03:34:38;;;;;;;10.20;9.27;;;;;;;20.47;37.69;95923.69;6018234;28;109193;-60
2023/10/07 03:37:44;;;;;;;12.15;10.95;;;;;;;20.47;37.92;95934.31;6008185;28;109266;-60
2023/10/07 03:40:53;;;;;;;12.95;11.75;;;;;;;20.47;37.79;95926.34;6016309;29;108752;-61
2023/10/07 03:43:59;;;;;;;13.50;11.90;;;;;;;20.45;37.79;95933.81;6018746;29;109115;-60
2023/10/07 03:47:02;;;;;;;15.77;14.27;;;;;;;20.43;37.82;95928.75;6017985;29;108996;-61
2023/10/07 03:50:24;;;;;;;12.27;11.07;;;;;;;20.44;37.52;95922.38;6005906;28;109791;-60
2023/10/07 03:53:31;;;;;;;11.70;9.50;;;;;;;20.44;37.49;95929.56;6018304;28;108982;-61
2023/10/07 03:56:35;;;;;;;8.70;7.90;;;;;;;20.43;37.95;95925.31;6018389;28;108942;-60
2023/10/07 03:59:40;;;;;;;12.85;11.60;;;;;;;20.40;37.95;95933.84;6012682;29;108972;-58
2023/10/07 04:02:44;;;;;;;12.50;11.20;;;;;;;20.40;38.05;95931.97;6001952;29;109809;-59
2023/10/07 04:05:49;;;;;;;14.35;12.95;;;;;;;20.38;38.17;95935.97;6018130;29;108930;-58
2023/10/07 04:08:53;;;;;;;10.20;9.20;;;;;;;20.40;37.95;95939.16;6016546;28;108995;-60
2023/10/07 04:11:57;;;;;;;9.63;8.63;;;;;;;20.39;37.96;95938.34;6001399;28;111950;-59
2023/10/07 04:15:02;;;;;;;8.50;7.70;;;;;;;20.38;38.03;95939.41;6016378;28;108966;-60
2023/10/07 04:18:09;;;;;;;7.95;7.05;;;;;;;20.38;37.97;95943.94;6017951;28;109094;-60
2023/10/07 04:21:12;;;;;;;7.82;6.95;;;;;;;20.36;37.81;95935.44;6021469;28;109289;-60
2023/10/07 04:24:16;;;;;;;7.90;7.10;;;;;;;20.34;38.19;95932.28;6014492;28;109210;-60
2023/10/07 04:27:20;;;;;;;9.07;7.77;;;;;;;20.31;38.10;95926.41;6035034;28;109025;-60
2023/10/07 04:30:28;;;;;;;7.53;6.20;;;;;;;20.31;38.29;95933.59;6015194;28;109433;-60
2023/10/07 04:33:39;;;;;;;7.35;5.25;;;;;;;20.28;38.15;95923.50;6016446;28;108878;-59
2023/10/07 04:37:10;;;;;;;6.45;5.13;;;;;;;20.27;38.20;95927.22;6008287;28;109043;-60
2023/10/07 04:40:53;;;;;;;5.60;4.88;;;;;;;20.25;38.20;95924.84;6017327;29;110822;-60
2023/10/07 04:43:59;;;;;;;6.88;4.97;;;;;;;20.27;38.20;95932.53;6016417;28;109085;-60
2023/10/07 04:47:21;;;;;;;6.27;5.00;;;;;;;20.24;38.25;95917.13;6005642;28;109201;-60
2023/10/07 04:50:33;;;;;;;6.07;4.50;;;;;;;20.27;38.08;95932.53;6016756;28;108969;-60
2023/10/07 04:53:38;;;;;;;6.40;4.65;;;;;;;20.26;38.16;95937.06;6017247;28;109088;-60
2023/10/07 04:56:47;;;;;;;6.10;4.40;;;;;;;20.30;38.56;95937.31;6012876;28;108932;-60
2023/10/07 04:59:50;;;;;;;6.20;4.60;;;;;;;20.24;38.70;95935.72;6010884;28;109060;-60
2023/10/07 05:02:59;;;;;;;6.13;4.63;;;;;;;20.23;38.92;95936.78;6015055;28;108943;-60
2023/10/07 05:06:04;;;;;;;5.80;5.20;;;;;;;20.23;38.95;95942.91;6017601;28;108935;-60
2023/10/07 05:09:10;;;;;;;5.60;4.80;;;;;;;20.21;38.56;95937.06;6004882;28;109246;-58
2023/10/07 05:12:13;;;;;;;5.70;4.70;;;;;;;20.24;38.53;95947.19;6011761;28;109588;-60
2023/10/07 05:15:15;;;;;;;6.23;5.63;;;;;;;20.69;38.56;95947.25;6012717;28;109154;-60
2023/10/07 05:18:20;;;;;;;6.43;5.72;;;;;;;20.91;38.64;95953.78;6003621;28;108968;-60
2023/10/07 05:21:26;;;;;;;9.20;8.13;;;;;;;21.04;38.77;95957.69;5987626;28;109426;-59
2023/10/07 05:24:30;;;;;;;9.75;8.75;;;;;;;21.09;39.10;95956.88;6015891;28;108873;-61
2023/10/07 05:27:40;;;;;;;10.40;9.47;;;;;;;21.01;39.22;95958.25;6015025;28;110470;-62
2023/10/07 05:30:50;;;;;;;10.60;9.60;;;;;;;21.07;39.90;95978.47;6011279;28;109148;-62
2023/10/07 05:33:55;;;;;;;10.20;9.20;;;;;;;21.07;39.80;95981.13;6007289;28;110050;-60
2023/10/07 05:36:59;;;;;;;9.20;8.30;;;;;;;21.09;39.32;95978.97;6015774;28;108906;-60
2023/10/07 05:40:03;;;;;;;8.18;7.30;;;;;;;21.14;39.67;95980.78;6016857;28;108921;-61
2023/10/07 05:43:08;;;;;;;9.23;7.82;;;;;;;21.24;39.77;95975.41;6005104;28;109248;-60
2023/10/07 05:46:12;;;;;;;10.80;8.18;;;;;;;21.23;39.18;95983.69;6016338;28;108885;-60
2023/10/07 05:49:16;;;;;;;9.27;8.38;;;;;;;21.19;39.29;95980.78;6015998;28;108946;-60
2023/10/07 05:52:19;;;;;;;11.55;8.90;;;;;;;21.21;39.10;95983.97;6014470;28;108946;-59
2023/10/07 05:55:23;;;;;;;9.90;8.32;;;;;;;21.23;39.33;95989.81;6005065;28;109156;-60
2023/10/07 05:58:27;;;;;;;10.73;8.32;;;;;;;21.26;39.29;95991.09;6016311;29;109125;-60
2023/10/07 06:01:33;;;;;;;12.45;10.85;;;;;;;21.25;39.19;95990.31;6014303;28;109196;-61
2023/10/07 06:04:39;;;;;;;16.02;10.85;;;;;;;21.32;40.09;95997.97;6012004;28;109155;-61
2023/10/07 06:07:42;;;;;;;12.47;10.30;;;;;;;21.37;39.90;95988.09;6009790;28;109275;-60
2023/10/07 06:10:51;;;;;;;18.85;14.38;;;;;;;21.50;41.19;95990.13;6015862;29;108874;-60
2023/10/07 06:13:55;;;;;;;22.27;19.48;;;;;;;21.37;39.79;95992.63;6012142;29;109196;-61
2023/10/07 06:16:58;;;;;;;16.45;13.98;;;;;;;21.03;39.57;95981.91;6005592;29;108991;-61
2023/10/07 06:20:14;;;;;;;16.85;13.90;;;;;;;20.64;39.86;95985.28;6015390;28;108915;-60
2023/10/07 06:23:18;;;;;;;16.40;13.38;;;;;;;20.47;40.74;95990.94;6015219;28;109117;-60
2023/10/07 06:26:22;;;;;;;18.15;14.13;;;;;;;20.86;40.25;95987.59;6012982;28;109092;-60
2023/10/07 06:29:31;;;;;;;18.20;16.30;;;;;;;21.05;40.77;95985.94;6000861;29;109334;-60
2023/10/07 06:32:44;;;;;;;29.30;14.15;;;;;;;20.59;40.23;95983.47;6014522;29;108816;-60
2023/10/07 06:35:51;;;;;;;32.38;18.40;;;;;;;20.52;41.57;95987.50;6013676;28;109304;-61
2023/10/07 06:38:58;;;;;;;27.37;14.63;;;;;;;21.12;40.06;95986.41;6010781;29;108788;-58
2023/10/07 06:42:03;;;;;;;23.85;13.90;;;;;;;21.59;39.18;95992.19;6009881;28;109107;-56
2023/10/07 06:45:10;;;;;;;20.48;12.75;;;;;;;21.86;38.57;95989.06;6015801;29;108958;-57
2023/10/07 06:48:15;;;;;;;16.70;11.35;;;;;;;22.11;38.49;95994.16;6015604;28;108914;-55
2023/10/07 06:51:20;;;;;;;16.50;11.17;;;;;;;22.30;37.94;95997.66;6005498;29;108929;-55
2023/10/07 06:54:26;;;;;;;18.20;11.00;;;;;;;22.44;38.00;95994.34;6015568;28;108987;-56
2023/10/07 06:57:30;;;;;;;16.13;11.05;;;;;;;22.54;37.59;95999.56;6015901;28;109081;-56
2023/10/07 07:00:47;;;;;;;14.48;10.20;;;;;;;22.62;37.93;95991.75;6015641;29;108885;-56
2023/10/07 07:03:51;;;;;;;16.50;10.30;;;;;;;22.72;37.26;95985.50;6004842;29;108847;-56
2023/10/07 07:07:09;;;;;;;16.05;10.55;;;;;;;22.80;37.41;95986.72;6014611;28;108965;-56
2023/10/07 07:10:16;;;;;;;14.68;10.15;;;;;;;22.87;37.13;95977.28;6015098;28;108991;-58
2023/10/07 07:13:25;;;;;;;14.83;10.70;;;;;;;22.94;36.99;95974.25;6009682;29;108956;-58
2023/10/07 07:16:29;;;;;;;13.50;9.90;;;;;;;23.01;37.11;95972.00;6018243;29;109126;-57
2023/10/07 07:19:37;;;;;;;12.40;9.23;;;;;;;23.07;36.87;95970.06;6019437;28;108937;-57
2023/10/07 07:22:42;;;;;;;12.40;9.90;;;;;;;23.12;36.95;95970.00;6019403;28;108955;-57
2023/10/07 07:25:53;;;;;;;12.77;9.35;;;;;;;23.17;36.64;95975.25;6009535;28;108962;-57
2023/10/07 07:28:57;;;;;;;10.47;8.87;;;;;;;23.20;37.23;95972.03;6019298;28;108892;-57
2023/10/07 07:32:04;;;;;;;11.95;9.50;;;;;;;23.26;36.88;95977.00;6019174;28;108981;-57
2023/10/07 07:35:10;;;;;;;10.13;8.30;;;;;;;23.29;36.81;95981.78;6017171;28;108957;-57
2023/10/07 07:38:26;;;;;;;12.52;9.50;;;;;;;23.35;36.82;95976.34;6008216;28;109232;-56
2023/10/07 07:41:34;;;;;;;10.70;8.70;;;;;;;23.35;36.81;95979.81;6019130;28;108808;-56
2023/10/07 07:44:39;;;;;;;10.45;8.88;;;;;;;23.42;36.67;95976.78;6018615;28;108965;-57
2023/10/07 07:47:42;;;;;;;10.50;8.50;;;;;;;23.43;36.90;95973.03;6008105;28;109200;-56
2023/10/07 07:50:46;;;;;;;9.65;8.13;;;;;;;23.43;36.87;95967.69;6018537;28;108831;-57
2023/10/07 07:53:51;;;;;;;10.10;8.90;;;;;;;23.50;36.56;95962.75;6018565;28;108993;-57
2023/10/07 07:56:55;;;;;;;11.07;8.32;;;;;;;23.52;36.62;95952.56;6018636;28;108879;-57
2023/10/07 07:59:58;;;;;;;10.05;8.52;;;;;;;23.54;36.69;95951.22;6007452;28;108973;-58
2023/10/07 08:03:05;;;;;;;9.10;8.20;;;;;;;23.56;36.75;95946.38;6018537;28;108935;-58
2023/10/07 08:06:11;;;;;;;10.40;8.13;;;;;;;23.59;36.71;95959.13;6018740;28;109051;-58
2023/10/07 08:09:19;;;;;;;9.40;8.00;;;;;;;23.58;36.51;95949.53;6017887;28;108790;-58
2023/10/07 08:12:30;;;;;;;8.50;7.60;;;;;;;23.59;36.57;95956.47;6008813;28;110047;-58
2023/10/07 08:15:41;;;;;;;9.48;7.82;;;;;;;23.66;36.88;95966.75;6018061;28;109078;-58
2023/10/07 08:18:46;;;;;;;9.55;7.90;;;;;;;23.64;36.63;95952.91;6018236;28;109021;-58
2023/10/07 08:21:51;;;;;;;10.00;7.80;;;;;;;23.67;36.72;95955.00;6007573;28;108916;-59
2023/10/07 08:25:00;;;;;;;8.10;7.30;;;;;;;23.68;36.65;95953.91;6017103;28;108915;-58
2023/10/07 08:28:18;;;;;;;8.50;7.60;;;;;;;23.68;36.75;95953.09;6018039;29;108924;-58
2023/10/07 08:31:22;;;;;;;7.68;6.97;;;;;;;23.69;36.83;95944.81;6018191;28;108832;-58
2023/10/07 08:34:32;;;;;;;8.30;7.30;;;;;;;23.62;36.84;95938.25;6006231;28;110388;-57
2023/10/07 08:37:37;;;;;;;8.38;7.47;;;;;;;23.70;36.83;95942.94;6017859;29;108808;-58
2023/10/07 08:40:49;;;;;;;8.57;7.57;;;;;;;23.69;36.52;95934.13;6016750;28;108982;-58
2023/10/07 08:44:03;;;;;;;8.07;7.33;;;;;;;23.69;36.67;95923.44;6012289;28;108923;-58
2023/10/07 08:47:11;;;;;;;8.45;7.57;;;;;;;23.65;36.95;95921.63;6012402;28;109044;-56
2023/10/07 08:50:14;;;;;;;8.27;7.13;;;;;;;23.64;36.81;95920.06;6016963;28;108976;-57
2023/10/07 08:53:23;;;;;;;7.70;7.00;;;;;;;23.62;36.79;95923.03;6017217;28;109312;-56
2023/10/07 08:56:30;;;;;;;8.25;7.45;;;;;;;23.59;37.11;95912.91;6006723;28;109357;-57
2023/10/07 08:59:34;;;;;;;8.38;7.57;;;;;;;23.57;36.92;95909.75;6016842;28;108931;-57
2023/10/07 09:02:37;;;;;;;7.80;7.10;;;;;;;23.52;37.01;95907.97;6017583;28;108926;-57
2023/10/07 09:05:40;;;;;;;7.50;6.80;;;;;;;23.51;37.23;95903.69;6017206;28;109148;-57
2023/10/07 09:08:45;;;;;;;7.60;6.90;;;;;;;23.48;37.00;95887.47;6005983;29;108841;-58
2023/10/07 09:11:51;;;;;;;7.70;7.00;;;;;;;23.51;37.36;95900.22;6016147;28;108976;-57
2023/10/07 09:14:57;;;;;;;7.80;7.10;;;;;;;23.50;37.40;95902.09;6016653;28;108957;-58
2023/10/07 09:18:03;;;;;;;6.90;6.20;;;;;;;23.50;37.29;95901.31;6012465;29;108923;-57
2023/10/07 09:21:11;;;;;;;7.35;6.65;;;;;;;23.49;37.13;95897.06;6011747;28;109092;-57
2023/10/07 09:24:24;;;;;;;7.60;6.80;;;;;;;23.51;37.28;95893.00;6016584;28;108946;-57
2023/10/07 09:27:36;;;;;;;7.67;6.90;;;;;;;23.50;36.95;95891.41;6016752;28;109273;-57
2023/10/07 09:30:46;;;;;;;8.00;7.20;;;;;;;23.55;37.43;95890.56;6006268;28;109030;-56
2023/10/07 09:33:49;;;;;;;7.95;7.15;;;;;;;23.57;37.42;95891.06;6016135;28;108950;-56
2023/10/07 09:36:54;;;;;;;7.60;6.90;;;;;;;23.58;37.26;95888.09;6015701;28;108908;-57
2023/10/07 09:40:19;;;;;;;7.30;6.60;;;;;;;23.60;37.18;95891.25;6016412;28;109200;-57
2023/10/07 09:43:26;;;;;;;7.60;6.90;;;;;;;23.63;36.99;95887.19;6004919;28;109057;-57
2023/10/07 09:46:29;;;;;;;7.50;6.80;;;;;;;23.64;37.11;95890.66;6016526;28;108932;-58
2023/10/07 09:49:41;;;;;;;7.35;6.65;;;;;;;23.65;37.30;95874.31;6016544;28;109025;-57
2023/10/07 09:52:44;;;;;;;7.65;6.95;;;;;;;23.63;37.06;95876.50;6007098;28;109003;-58
2023/10/07 09:56:04;;;;;;;7.67;6.93;;;;;;;23.64;37.17;95878.09;6016011;28;109228;-56
2023/10/07 09:59:22;;;;;;;7.00;6.40;;;;;;;23.66;37.12;95865.22;6016449;28;108817;-56
2023/10/07 10:02:46;;;;;;;7.60;6.90;;;;;;;23.67;37.39;95866.81;6016393;28;108883;-56
2023/10/07 10:06:08;;;;;;;7.90;7.10;;;;;;;23.67;37.13;95864.13;6005589;28;108899;-57
2023/10/07 10:09:14;;;;;;;8.10;7.40;;;;;;;23.67;36.85;95848.09;6015929;28;108929;-57
2023/10/07 10:12:27;;;;;;;7.00;6.40;;;;;;;23.67;37.09;95856.13;6015924;28;109188;-57
2023/10/07 10:15:52;;;;;;;7.40;6.80;;;;;;;23.68;37.12;95846.22;6004588;28;109028;-57
2023/10/07 10:19:17;;;;;;;7.33;6.73;;;;;;;23.65;37.17;95842.25;6015929;28;109011;-57
2023/10/07 10:22:22;;;;;;;6.82;6.22;;;;;;;23.67;37.33;95833.94;6016070;28;109000;-57
2023/10/07 10:25:36;;;;;;;7.32;6.70;;;;;;;23.65;37.12;95820.88;6015739;28;108868;-56
2023/10/07 10:28:41;;;;;;;6.70;6.10;;;;;;;23.62;37.55;95810.00;6006901;28;109083;-58
2023/10/07 10:31:58;;;;;;;6.93;6.33;;;;;;;23.62;37.81;95800.09;5992868;29;109213;-57
2023/10/07 10:35:04;;;;;;;7.00;6.30;;;;;;;23.63;37.17;95799.00;6002420;29;108915;-57
2023/10/07 10:38:09;;;;;;;6.97;6.28;;;;;;;23.59;37.61;95788.13;6006053;28;108952;-57
2023/10/07 10:41:26;;;;;;;7.10;6.50;;;;;;;23.57;37.35;95786.84;6015502;28;109000;-57
2023/10/07 10:44:37;;;;;;;7.00;6.40;;;;;;;23.57;37.72;95781.50;6015781;29;109165;-57
2023/10/07 10:47:50;;;;;;;6.70;6.10;;;;;;;23.57;37.27;95776.94;6015489;28;108918;-57
2023/10/07 10:50:55;;;;;;;6.80;6.20;;;;;;;23.56;37.63;95769.25;6009358;28;108828;-57
2023/10/07 10:53:59;;;;;;;6.90;6.30;;;;;;;23.54;37.40;95766.88;6019705;28;108983;-56
2023/10/07 10:57:05;;;;;;;6.43;5.93;;;;;;;23.51;37.81;95748.72;6019657;28;108944;-55
2023/10/07 11:00:19;;;;;;;6.85;6.25;;;;;;;23.52;37.65;95749.53;6015220;29;109057;-57
2023/10/07 11:03:24;;;;;;;6.90;6.30;;;;;;;23.51;37.77;95746.06;6015676;28;108864;-61
2023/10/07 11:06:28;;;;;;;7.00;6.40;;;;;;;23.49;37.77;95734.09;6020795;28;108923;-61
2023/10/07 11:09:37;;;;;;;6.53;6.00;;;;;;;23.49;37.83;95728.75;6021468;28;108944;-61
2023/10/07 11:12:45;;;;;;;6.60;6.00;;;;;;;23.47;37.69;95728.25;6010580;28;109330;-60
2023/10/07 11:15:58;;;;;;;6.80;6.10;;;;;;;23.44;38.18;95718.19;6020953;28;109025;-62
2023/10/07 11:19:11;;;;;;;6.60;6.00;;;;;;;23.43;37.88;95716.59;6021016;28;108863;-60
2023/10/07 11:22:19;;;;;;;6.60;6.00;;;;;;;23.42;38.06;95709.69;6021696;28;108859;-61
2023/10/07 11:25:27;;;;;;;6.50;5.90;;;;;;;23.41;37.82;95706.22;6010773;28;109343;-61
2023/10/07 11:28:33;;;;;;;6.30;5.80;;;;;;;23.40;37.63;95704.63;6021080;29;109000;-61
2023/10/07 11:31:37;;;;;;;5.97;5.47;;;;;;;23.39;37.89;95699.59;6020799;29;108891;-61
2023/10/07 11:34:45;;;;;;;6.60;6.00;;;;;;;23.37;38.15;95696.44;6013859;28;109205;-61
2023/10/07 11:37:49;;;;;;;6.50;5.90;;;;;;;23.35;38.38;95690.56;6019129;28;108765;-62
2023/10/07 11:40:53;;;;;;;6.47;5.97;;;;;;;23.32;38.45;95683.16;6021155;28;108918;-63
2023/10/07 11:43:57;;;;;;;6.60;6.00;;;;;;;23.30;38.04;95684.25;6020490;28;108505;-62
2023/10/07 11:47:01;;;;;;;6.70;6.10;;;;;;;23.21;38.18;95667.31;6009637;28;109287;-62
2023/10/07 11:50:08;;;;;;;6.05;5.55;;;;;;;23.29;38.60;95671.19;6019353;28;109066;-62
2023/10/07 11:53:12;;;;;;;6.10;5.60;;;;;;;23.26;38.08;95669.88;6020631;28;108792;-62
2023/10/07 11:56:15;;;;;;;5.80;5.30;;;;;;;23.25;38.12;95676.31;6020119;28;108915;-64
2023/10/07 11:59:19;;;;;;;5.60;5.10;;;;;;;23.23;38.68;95665.16;6008924;28;108978;-62
2023/10/07 12:02:23;;;;;;;6.40;5.80;;;;;;;23.20;38.60;95665.75;6020538;28;109038;-62
2023/10/07 12:05:31;;;;;;;6.70;6.10;;;;;;;23.20;38.44;95657.72;6019719;28;109062;-63
2023/10/07 12:08:38;;;;;;;5.87;5.37;;;;;;;23.20;38.50;95655.06;6014155;29;122481;-62
2023/10/07 12:11:42;;;;;;;5.63;5.10;;;;;;;23.18;38.73;95645.75;6014466;28;108903;-61
2023/10/07 12:14:47;;;;;;;6.20;5.60;;;;;;;23.17;38.40;95652.16;6018142;28;108912;-61
2023/10/07 12:17:50;;;;;;;6.40;5.80;;;;;;;23.17;38.50;95644.94;6018977;28;108923;-59
2023/10/07 12:21:00;;;;;;;6.10;5.60;;;;;;;23.17;38.30;95638.81;6007069;28;109062;-60
2023/10/07 12:24:07;;;;;;;5.90;5.40;;;;;;;23.15;38.66;95635.66;6018824;28;108942;-59
2023/10/07 12:27:12;;;;;;;5.90;5.40;;;;;;;23.15;38.69;95630.31;6018575;28;108922;-60
2023/10/07 12:30:21;;;;;;;6.13;5.60;;;;;;;23.14;38.56;95628.75;6018747;28;109213;-60
2023/10/07 12:33:24;;;;;;;6.18;5.68;;;;;;;23.13;38.54;95625.28;6007605;28;109055;-60
2023/10/07 12:36:41;;;;;;;6.70;6.10;;;;;;;23.13;38.99;95617.28;6011432;28;109017;-60
2023/10/07 12:39:49;;;;;;;5.78;5.28;;;;;;;23.14;39.04;95613.50;6018823;29;108884;-59
2023/10/07 12:42:53;;;;;;;6.03;5.53;;;;;;;23.11;38.50;95610.66;6011910;28;108943;-59
2023/10/07 12:45:57;;;;;;;6.10;5.60;;;;;;;23.11;38.63;95603.44;6016392;28;108906;-59
2023/10/07 12:49:01;;;;;;;6.43;5.93;;;;;;;23.08;38.93;95609.38;6018292;28;108916;-59
2023/10/07 12:52:05;;;;;;;5.93;5.43;;;;;;;23.08;38.76;95601.38;6017559;28;108956;-59
2023/10/07 12:55:12;;;;;;;6.40;5.80;;;;;;;23.06;38.83;95600.09;6008241;28;110363;-61
2023/10/07 12:58:17;;;;;;;6.27;5.77;;;;;;;23.08;39.03;95590.69;6018434;28;108804;-60
2023/10/07 13:01:20;;;;;;;6.00;5.50;;;;;;;23.07;38.81;95593.66;6017645;28;109053;-60
2023/10/07 13:04:29;;;;;;;6.20;5.70;;;;;;;23.07;39.33;95586.44;6017800;28;108931;-59
2023/10/07 13:07:34;;;;;;;6.75;6.15;;;;;;;23.06;38.68;95592.88;6006617;28;109254;-60
2023/10/07 13:10:38;;;;;;;6.68;6.07;;;;;;;23.07;38.64;95589.13;6017536;29;108912;-58
2023/10/07 13:13:42;;;;;;;6.47;5.87;;;;;;;23.08;39.20;95587.22;6017204;28;109295;-59
2023/10/07 13:16:47;;;;;;;6.20;5.70;;;;;;;23.06;38.92;95579.53;6012074;28;109298;-60
2023/10/07 13:19:51;;;;;;;6.30;5.80;;;;;;;23.04;38.71;95572.91;6011721;28;109158;-60
2023/10/07 13:23:00;;;;;;;6.37;5.80;;;;;;;23.04;39.04;95581.69;6016613;28;108907;-60
2023/10/07 13:26:04;;;;;;;6.00;5.50;;;;;;;23.05;38.92;95580.63;6017144;28;109540;-60
2023/10/07 13:29:10;;;;;;;6.90;6.30;;;;;;;23.04;39.04;95575.56;6006537;28;108996;-60
2023/10/07 13:32:15;;;;;;;7.18;6.57;;;;;;;23.02;39.37;95575.88;6016960;28;108891;-60
2023/10/07 13:35:20;;;;;;;6.70;6.10;;;;;;;23.04;39.35;95575.56;6016284;28;109236;-60
2023/10/07 13:38:25;;;;;;;6.70;6.10;;;;;;;23.02;39.03;95567.88;6016647;28;109028;-60
2023/10/07 13:41:29;;;;;;;6.88;6.28;;;;;;;23.03;38.68;95571.31;6006011;28;109425;-61
2023/10/07 13:44:32;;;;;;;7.13;6.53;;;;;;;23.03;39.36;95572.13;6016613;28;109146;-60
2023/10/07 13:47:36;;;;;;;7.30;6.70;;;;;;;23.03;38.85;95569.44;6016561;28;108901;-60
2023/10/07 13:50:40;;;;;;;6.65;6.05;;;;;;;23.00;39.02;95557.47;6011673;28;108907;-60
2023/10/07 13:54:21;;;;;;;7.50;6.80;;;;;;;23.02;39.40;95565.19;6010310;28;108943;-60
2023/10/07 13:57:23;;;;;;;6.88;6.28;;;;;;;23.01;39.20;95567.06;6016142;28;109023;-60
2023/10/07 14:00:35;;;;;;;6.65;6.05;;;;;;;23.01;39.29;95560.91;6016501;28;108970;-60
2023/10/07 14:03:39;;;;;;;7.37;6.77;;;;;;;23.00;39.05;95554.00;6005913;28;109268;-60
2023/10/07 14:06:43;;;;;;;7.03;6.43;;;;;;;23.01;38.93;95558.25;6016075;28;109124;-60
2023/10/07 14:09:49;;;;;;;7.03;6.43;;;;;;;23.00;39.20;95552.13;6016339;28;108920;-60
2023/10/07 14:12:52;;;;;;;6.77;6.17;;;;;;;22.97;38.94;95551.94;6015966;28;108974;-61
2023/10/07 14:15:57;;;;;;;6.82;6.22;;;;;;;22.99;39.22;95549.75;5988471;29;108969;-60
2023/10/07 14:19:22;;;;;;;6.90;6.30;;;;;;;22.97;38.90;95549.28;6016094;28;109254;-60
2023/10/07 14:22:28;;;;;;;6.80;6.20;;;;;;;22.98;39.22;95540.16;6016937;28;108783;-60
2023/10/07 14:25:33;;;;;;;6.93;6.32;;;;;;;22.95;39.57;95549.56;6012852;28;108968;-60
2023/10/07 14:28:37;;;;;;;7.03;6.43;;;;;;;22.96;39.37;95543.13;6023983;29;109223;-60